Informações Meteorológicas
METAR FOR SBCH
ADDS - METARS form results

(1126 UTC 02 July 2020)
Data provider http://aviationweather.gov/metar/data/
 
METAR text: SBCH 021100Z 00000KT 0800 FG SCT002 SCT008 BKN080 07/07 Q1019
Conditions at: SBCH (CHAPECO , BR) observed 1100 UTC 02 July 2020
Temperature: 7.0°C (45°F)
Dewpoint: 7.0°C (45°F) [RH = 100%]
Pressure (altimeter): 30.09 inches Hg (1019.0 mb)
Winds: calm
Visibility: 0.50 miles (0.80 km)
Ceiling: 8000 feet AGL
Clouds: scattered clouds at 200 feet AGL
scattered clouds at 800 feet AGL
broken clouds at 8000 feet AGL
Weather: FG  (fog)

 Mapa do Aeroporto

 Informações da Pista
Pista 11 Tamanho da pista 6768 ft Largura da pista 148 ft
Elevação da pista 0 ft Ranhura da pista 0 ft Proa da pista 0
Pista 29 Tamanho da pista 6768 ft Largura da pista 148 ft
Elevação da pista 0 ft Ranhura da pista 0 ft Proa da pista 0

 Frequências do Aeroporto
Tipo AFIS Nome RDO Frequência 130.85 MHZ

 Auxílios de Navegação Próximos Ao Aeroporto
Tipo VOR-DME Nome Chapeco Frequência 116100 KHZ
Tipo NDB Nome Chapeco Frequência 173 KHZ



Powered by Virtual Airlines Manager [v2.6.2]